createdAt,value
2023-06-03T00:01:20.832Z,43.45
2023-06-03T00:03:50.573Z,43.48
2023-06-03T00:06:19.353Z,43.46
2023-06-03T00:08:48.167Z,43.51
2023-06-03T00:11:17.388Z,43.60
2023-06-03T00:13:46.250Z,43.67
2023-06-03T00:16:15.069Z,43.66
2023-06-03T00:18:43.797Z,43.54
2023-06-03T00:21:12.617Z,43.60
2023-06-03T00:23:41.612Z,43.68
2023-06-03T00:26:11.017Z,43.75
2023-06-03T00:28:39.536Z,43.62
2023-06-03T00:31:08.238Z,43.54
2023-06-03T00:33:37.668Z,43.50
2023-06-03T00:36:06.618Z,43.48
2023-06-03T00:38:35.793Z,43.46
2023-06-03T00:41:05.482Z,43.46
2023-06-03T00:43:34.360Z,43.57
2023-06-03T00:46:02.947Z,43.61
2023-06-03T00:48:31.899Z,43.45
2023-06-03T00:51:00.493Z,43.39
2023-06-03T00:53:29.047Z,43.45
2023-06-03T00:55:58.233Z,43.31
2023-06-03T00:58:26.787Z,43.36
2023-06-03T01:00:56.861Z,43.28
2023-06-03T01:03:25.979Z,43.20
2023-06-03T01:06:17.614Z,43.18
2023-06-03T01:09:00.188Z,43.20
2023-06-03T01:11:45.931Z,43.15
2023-06-03T01:14:44.949Z,43.15
2023-06-03T01:17:15.849Z,43.21
2023-06-03T01:19:51.956Z,43.10
2023-06-03T01:22:25.891Z,43.16
2023-06-03T01:25:09.905Z,43.19
2023-06-03T01:27:40.606Z,43.23
2023-06-03T01:30:15.182Z,43.27
2023-06-03T01:32:45.979Z,43.44
2023-06-03T01:35:16.493Z,43.43
2023-06-03T01:37:46.791Z,43.39
2023-06-03T01:40:16.943Z,43.41
2023-06-03T01:42:46.156Z,43.36
2023-06-03T01:45:15.688Z,43.32
2023-06-03T01:47:44.407Z,43.38
2023-06-03T01:50:13.320Z,43.32
2023-06-03T01:52:41.903Z,43.22
2023-06-03T01:55:10.547Z,43.14
2023-06-03T01:57:39.523Z,43.13
2023-06-03T02:00:08.918Z,43.29
2023-06-03T02:02:44.652Z,43.23
2023-06-03T02:05:13.774Z,43.21
2023-06-03T02:07:42.344Z,43.09
2023-06-03T02:10:11.284Z,43.09
2023-06-03T02:12:40.314Z,43.22
2023-06-03T02:15:17.855Z,43.26
2023-06-03T02:17:46.478Z,43.29
2023-06-03T02:20:15.542Z,43.36
2023-06-03T02:22:44.785Z,43.34
2023-06-03T02:25:15.624Z,43.40
2023-06-03T02:27:45.339Z,43.40
2023-06-03T02:30:15.099Z,43.53
2023-06-03T02:32:43.689Z,43.52
2023-06-03T02:35:12.284Z,43.49
2023-06-03T02:37:41.605Z,43.47
2023-06-03T02:40:11.348Z,43.53
2023-06-03T02:42:39.949Z,43.45
2023-06-03T02:45:09.828Z,43.59
2023-06-03T02:47:38.821Z,43.73
2023-06-03T02:50:07.910Z,43.65
2023-06-03T02:52:37.165Z,43.62
2023-06-03T02:55:06.984Z,43.78
2023-06-03T02:57:35.688Z,43.86
2023-06-03T03:00:11.220Z,43.80
2023-06-03T03:02:41.391Z,43.86
2023-06-03T03:05:12.363Z,43.88
2023-06-03T03:07:41.173Z,43.99
2023-06-03T03:10:10.317Z,43.91
2023-06-03T03:12:48.460Z,43.97
2023-06-03T03:15:17.788Z,44.01
2023-06-03T03:17:47.548Z,44.05
2023-06-03T03:20:16.171Z,44.19
2023-06-03T03:22:48.090Z,44.08
2023-06-03T03:25:19.900Z,44.19
2023-06-03T03:27:49.641Z,44.28
2023-06-03T03:30:18.186Z,44.29
2023-06-03T03:32:47.904Z,44.39
2023-06-03T03:35:22.646Z,44.38
2023-06-03T03:38:06.067Z,44.49
2023-06-03T03:40:39.026Z,44.81
2023-06-03T03:43:18.133Z,44.97
2023-06-03T03:45:47.973Z,45.00
2023-06-03T03:48:22.304Z,45.08
2023-06-03T03:50:54.439Z,45.04
2023-06-03T03:53:38.743Z,45.08
2023-06-03T03:56:17.739Z,45.06
2023-06-03T03:58:50.292Z,45.08
2023-06-03T04:01:25.560Z,45.11
2023-06-03T04:04:00.915Z,45.11
2023-06-03T04:06:38.460Z,45.18
2023-06-03T04:09:10.607Z,45.14
2023-06-03T04:11:40.136Z,45.04
2023-06-03T04:14:18.314Z,44.95
2023-06-03T04:16:57.854Z,44.91
2023-06-03T04:19:38.538Z,44.99
2023-06-03T04:22:23.790Z,45.11
2023-06-03T04:24:58.301Z,45.15
2023-06-03T04:27:31.884Z,45.26
2023-06-03T04:30:07.104Z,45.30
2023-06-03T04:32:35.709Z,45.50
2023-06-03T04:35:05.135Z,45.72
2023-06-03T04:37:36.913Z,46.21
2023-06-03T04:40:10.192Z,45.84
2023-06-03T04:42:39.626Z,45.67
2023-06-03T04:45:09.890Z,45.42
2023-06-03T04:47:43.396Z,45.32
2023-06-03T04:50:13.366Z,44.96
2023-06-03T04:52:42.080Z,44.60
2023-06-03T04:55:14.396Z,44.23
2023-06-03T04:57:47.573Z,44.27
2023-06-03T05:00:20.893Z,44.42
2023-06-03T05:02:58.257Z,44.44
2023-06-03T05:05:31.584Z,44.28
2023-06-03T05:08:01.288Z,44.33
2023-06-03T05:10:30.223Z,44.31
2023-06-03T05:12:59.781Z,44.26
2023-06-03T05:15:29.099Z,44.01
2023-06-03T05:17:58.281Z,44.20
2023-06-03T05:20:30.081Z,44.04
2023-06-03T05:22:59.505Z,44.08
2023-06-03T05:25:28.650Z,44.11
2023-06-03T05:28:03.967Z,43.39
2023-06-03T05:30:35.292Z,43.15
2023-06-03T05:33:04.965Z,43.87
2023-06-03T05:35:33.700Z,43.75
2023-06-03T05:38:02.450Z,43.53
2023-06-03T05:40:32.356Z,43.04
2023-06-03T05:43:01.819Z,42.91
2023-06-03T05:45:30.579Z,42.43
2023-06-03T05:47:59.821Z,42.29
2023-06-03T05:50:28.909Z,41.46
2023-06-03T05:52:57.475Z,41.47
2023-06-03T05:55:26.723Z,41.75
2023-06-03T05:57:57.063Z,41.69
2023-06-03T06:00:26.238Z,41.88
2023-06-03T06:02:55.682Z,41.41
2023-06-03T06:05:24.989Z,40.33
2023-06-03T06:07:53.661Z,40.20
2023-06-03T06:10:23.745Z,39.80
2023-06-03T06:12:52.880Z,38.59
2023-06-03T06:15:22.741Z,38.01
2023-06-03T06:17:51.773Z,37.64
2023-06-03T06:20:20.486Z,37.74
2023-06-03T06:22:53.110Z,37.74
2023-06-03T06:25:22.648Z,38.10
2023-06-03T06:27:53.362Z,37.89
2023-06-03T06:30:22.865Z,37.67
2023-06-03T06:32:53.762Z,36.77
2023-06-03T06:35:31.802Z,36.61
2023-06-03T06:38:00.965Z,36.53
2023-06-03T06:40:42.169Z,37.17
2023-06-03T06:43:16.326Z,36.78
2023-06-03T06:45:58.289Z,36.77
2023-06-03T06:48:28.105Z,36.28
2023-06-03T06:51:03.498Z,35.94
2023-06-03T06:53:36.434Z,34.89
2023-06-03T06:56:12.098Z,35.27
2023-06-03T06:59:06.830Z,35.37
2023-06-03T07:01:36.366Z,34.86
2023-06-03T07:04:05.110Z,34.03
2023-06-03T07:06:34.238Z,33.58
2023-06-03T07:09:07.911Z,33.57
2023-06-03T07:11:47.824Z,32.93
2023-06-03T07:14:18.382Z,32.17
2023-06-03T07:16:49.779Z,31.88
2023-06-03T07:19:19.039Z,32.19
2023-06-03T07:21:52.516Z,31.62
2023-06-03T07:24:23.475Z,30.77
2023-06-03T07:26:52.269Z,30.41
2023-06-03T07:29:21.284Z,30.12
2023-06-03T07:31:50.850Z,29.57
2023-06-03T07:34:26.343Z,29.98
2023-06-03T07:37:01.037Z,29.97
2023-06-03T07:39:33.321Z,29.54
2023-06-03T07:42:16.449Z,29.05
2023-06-03T07:45:00.166Z,28.99
2023-06-03T07:47:32.549Z,28.62
2023-06-03T07:53:07.127Z,28.44
2023-06-03T07:55:48.076Z,28.58
2023-06-03T07:58:18.196Z,28.05
2023-06-03T08:00:51.241Z,27.99
2023-06-03T08:03:23.781Z,27.67
2023-06-03T08:05:52.591Z,27.16
2023-06-03T08:08:25.922Z,27.15
2023-06-03T08:10:54.860Z,26.96
2023-06-03T08:13:24.329Z,26.81
2023-06-03T08:15:53.197Z,26.35
2023-06-03T08:18:43.891Z,26.65
2023-06-03T08:21:14.314Z,26.44
2023-06-03T08:23:44.201Z,26.31
2023-06-03T08:26:12.926Z,25.88
2023-06-03T08:28:42.013Z,25.98
2023-06-03T08:31:10.689Z,25.52
2023-06-03T08:33:39.819Z,25.03
2023-06-03T08:36:08.948Z,25.44
2023-06-03T08:38:38.747Z,25.34
2023-06-03T08:41:07.706Z,25.48
2023-06-03T08:43:54.407Z,25.45
2023-06-03T08:46:27.222Z,25.15
2023-06-03T08:49:09.176Z,25.23
2023-06-03T08:51:40.053Z,25.11
2023-06-03T08:54:15.723Z,25.19
2023-06-03T08:56:50.691Z,25.30
2023-06-03T08:59:23.230Z,25.49
2023-06-03T09:01:58.279Z,25.53
2023-06-03T09:04:29.471Z,25.18
2023-06-03T09:06:59.653Z,25.17
2023-06-03T09:09:29.309Z,25.31
2023-06-03T09:11:59.683Z,25.17
2023-06-03T09:14:30.254Z,25.00
2023-06-03T09:17:00.568Z,25.04
2023-06-03T09:19:30.469Z,25.18
2023-06-03T09:21:59.843Z,25.00
2023-06-03T09:24:30.694Z,24.70
2023-06-03T09:27:00.684Z,24.51
2023-06-03T09:29:29.397Z,24.40
2023-06-03T09:31:59.646Z,24.37
2023-06-03T09:34:30.052Z,24.53
2023-06-03T09:37:07.410Z,24.31
2023-06-03T09:39:39.578Z,24.30
2023-06-03T09:42:08.493Z,24.23
2023-06-03T09:44:45.241Z,24.39
2023-06-03T09:47:14.301Z,24.12
2023-06-03T09:50:06.914Z,24.32
2023-06-03T09:52:39.847Z,24.43
2023-06-03T09:55:10.590Z,24.33
2023-06-03T09:57:39.612Z,24.23
2023-06-03T10:00:12.999Z,23.79
2023-06-03T10:02:47.061Z,23.84
2023-06-03T10:05:31.966Z,23.75
2023-06-03T10:08:02.898Z,24.01
2023-06-03T10:10:34.810Z,23.93
2023-06-03T10:13:25.089Z,23.81
2023-06-03T10:15:59.871Z,23.78
2023-06-03T10:18:39.094Z,23.38
2023-06-03T10:21:09.088Z,22.85
2023-06-03T10:23:40.474Z,23.12
2023-06-03T10:26:10.148Z,23.01
2023-06-03T10:28:40.304Z,23.16
2023-06-03T10:31:09.988Z,22.95
2023-06-03T10:33:42.105Z,22.85
2023-06-03T10:36:13.647Z,22.97
2023-06-03T10:38:45.356Z,22.87
2023-06-03T10:41:15.289Z,22.95
2023-06-03T10:43:46.398Z,22.84
2023-06-03T10:46:16.783Z,22.60
2023-06-03T10:48:48.274Z,22.62
2023-06-03T10:51:37.610Z,22.65
2023-06-03T10:54:32.227Z,22.79
2023-06-03T10:57:08.146Z,22.99
2023-06-03T10:59:45.494Z,22.81
2023-06-03T11:02:14.906Z,22.70
2023-06-03T11:04:44.365Z,22.73
2023-06-03T11:07:39.890Z,22.91
2023-06-03T11:10:44.080Z,23.02
2023-06-03T11:13:40.994Z,23.05
2023-06-03T11:16:10.668Z,23.01
2023-06-03T11:18:39.732Z,23.11
2023-06-03T11:21:47.203Z,23.21
2023-06-03T11:24:55.374Z,23.13
2023-06-03T11:27:39.221Z,23.23
2023-06-03T11:30:08.844Z,23.20
2023-06-03T11:32:41.025Z,23.26
2023-06-03T11:35:10.869Z,23.29
2023-06-03T11:37:43.018Z,23.40
2023-06-03T11:40:18.428Z,23.49
2023-06-03T11:42:55.438Z,23.42
2023-06-03T11:45:28.536Z,23.43
2023-06-03T11:48:17.427Z,23.45
2023-06-03T11:50:51.870Z,23.63
2023-06-03T11:53:35.546Z,23.52
2023-06-03T11:56:16.115Z,23.58
2023-06-03T11:58:53.347Z,23.72
2023-06-03T12:01:22.091Z,23.83
2023-06-03T12:04:00.918Z,23.91
2023-06-03T12:06:39.512Z,23.92
2023-06-03T12:09:08.398Z,23.97
2023-06-03T12:11:42.940Z,23.97
2023-06-03T12:14:12.779Z,23.94
2023-06-03T12:16:42.139Z,23.87
2023-06-03T12:19:10.878Z,23.98
2023-06-03T12:21:41.029Z,24.13
2023-06-03T12:24:10.769Z,24.29
2023-06-03T12:26:42.929Z,24.38
2023-06-03T12:29:13.915Z,24.30
2023-06-03T12:32:01.049Z,24.34
2023-06-03T12:34:32.594Z,24.36
2023-06-03T12:37:02.951Z,24.43
2023-06-03T12:39:49.806Z,24.45
2023-06-03T12:42:21.309Z,24.39
2023-06-03T12:44:54.266Z,24.49
2023-06-03T12:47:23.608Z,24.59
2023-06-03T12:50:10.847Z,24.59
2023-06-03T12:52:40.424Z,24.71
2023-06-03T12:55:13.745Z,24.72
2023-06-03T12:57:50.539Z,24.74
2023-06-03T13:00:28.264Z,24.80
2023-06-03T13:02:58.844Z,24.85
2023-06-03T13:05:28.890Z,24.87
2023-06-03T13:07:57.532Z,24.87
2023-06-03T13:10:26.326Z,24.89
2023-06-03T13:12:55.012Z,25.03
2023-06-03T13:15:23.663Z,25.07
2023-06-03T13:17:53.233Z,25.10
2023-06-03T13:20:21.968Z,25.24
2023-06-03T13:22:50.638Z,25.18
2023-06-03T13:25:19.525Z,25.19
2023-06-03T13:27:48.149Z,25.27
2023-06-03T13:30:16.741Z,25.30
2023-06-03T13:32:46.150Z,25.45
2023-06-03T13:35:15.400Z,25.45
2023-06-03T13:37:43.986Z,25.46
2023-06-03T13:40:13.229Z,25.57
2023-06-03T13:42:42.861Z,25.52
2023-06-03T13:45:12.223Z,25.54
2023-06-03T13:47:41.594Z,25.48
2023-06-03T13:50:10.675Z,25.59
2023-06-03T13:52:39.411Z,25.62
2023-06-03T13:55:08.828Z,25.70
2023-06-03T13:57:37.490Z,25.90
2023-06-03T14:00:08.494Z,25.86
2023-06-03T14:02:38.083Z,25.97
2023-06-03T14:05:07.582Z,26.08
2023-06-03T14:07:36.880Z,26.00
2023-06-03T14:10:07.316Z,25.97
2023-06-03T14:12:36.260Z,25.95
2023-06-03T14:15:05.256Z,26.13
2023-06-03T14:17:34.447Z,26.12
2023-06-03T14:20:04.145Z,26.04
2023-06-03T14:22:32.899Z,26.13
2023-06-03T14:25:01.607Z,26.09
2023-06-03T14:27:31.922Z,26.14
2023-06-03T14:30:00.535Z,26.25
2023-06-03T14:32:30.099Z,26.30
2023-06-03T14:35:04.756Z,26.26
2023-06-03T14:37:33.476Z,26.26
2023-06-03T14:40:03.451Z,26.31
2023-06-03T14:42:32.496Z,26.31
2023-06-03T14:45:01.931Z,26.43
2023-06-03T14:47:31.490Z,26.45
2023-06-03T14:50:00.713Z,26.48
2023-06-03T14:52:29.913Z,26.46
2023-06-03T14:54:58.924Z,26.57
2023-06-03T14:57:28.823Z,26.57
2023-06-03T14:59:57.652Z,26.53
2023-06-03T15:02:26.556Z,26.49
2023-06-03T15:04:55.954Z,26.53
2023-06-03T15:07:25.082Z,26.57
2023-06-03T15:09:53.769Z,26.58
2023-06-03T15:12:22.680Z,26.58
2023-06-03T15:14:51.552Z,26.66
2023-06-03T15:17:20.141Z,26.65
2023-06-03T15:19:49.086Z,26.69
2023-06-03T15:22:18.043Z,26.66
2023-06-03T15:24:46.660Z,26.65
2023-06-03T15:27:16.889Z,26.70
2023-06-03T15:29:46.045Z,26.77
2023-06-03T15:32:14.726Z,26.76
2023-06-03T15:34:43.635Z,26.69
2023-06-03T15:37:12.563Z,26.73
2023-06-03T15:39:41.421Z,26.74
2023-06-03T15:42:11.547Z,26.82
2023-06-03T15:44:40.819Z,26.82
2023-06-03T15:47:09.529Z,26.87
2023-06-03T15:49:38.479Z,26.89
2023-06-03T15:52:08.109Z,26.88
2023-06-03T15:54:37.246Z,26.98
2023-06-03T15:57:07.508Z,26.99
2023-06-03T15:59:36.539Z,27.06
2023-06-03T16:02:05.403Z,27.15
2023-06-03T16:04:36.734Z,27.19
2023-06-03T16:07:05.742Z,27.24
2023-06-03T16:09:34.810Z,27.24
2023-06-03T16:12:03.766Z,27.32
2023-06-03T16:14:32.454Z,27.25
2023-06-03T16:17:02.164Z,27.29
2023-06-03T16:19:33.176Z,27.26
2023-06-03T16:22:02.114Z,27.22
2023-06-03T16:24:31.143Z,27.20
2023-06-03T16:27:00.588Z,27.18
2023-06-03T16:29:29.703Z,27.14
2023-06-03T16:31:58.596Z,27.20
2023-06-03T16:34:27.693Z,27.14
2023-06-03T16:36:56.531Z,27.12
2023-06-03T16:39:26.262Z,27.15
2023-06-03T16:41:55.375Z,27.15
2023-06-03T16:44:24.405Z,27.06
2023-06-03T16:46:53.320Z,27.07
2023-06-03T16:49:23.293Z,27.04
2023-06-03T16:51:53.227Z,27.07
2023-06-03T16:54:22.538Z,27.15
2023-06-03T16:56:51.736Z,27.16
2023-06-03T16:59:20.947Z,27.17
2023-06-03T17:01:49.621Z,27.15
2023-06-03T17:04:34.415Z,27.20
2023-06-03T17:07:19.288Z,27.12
2023-06-03T17:10:09.224Z,27.17
2023-06-03T17:12:56.437Z,27.17
2023-06-03T17:15:42.168Z,27.11
2023-06-03T17:18:37.348Z,27.19
2023-06-03T17:21:25.702Z,27.19
2023-06-03T17:24:13.171Z,27.24
2023-06-03T17:27:08.633Z,27.25
2023-06-03T17:29:55.139Z,27.31
2023-06-03T17:32:41.760Z,27.38
2023-06-03T17:35:36.774Z,27.43
2023-06-03T17:38:28.912Z,27.40
2023-06-03T17:41:23.656Z,27.52
2023-06-03T17:44:03.003Z,27.61
2023-06-03T17:46:32.722Z,27.66
2023-06-03T17:49:01.673Z,27.66
2023-06-03T17:51:30.900Z,27.73
2023-06-03T17:53:59.849Z,27.87
2023-06-03T17:56:28.487Z,27.91
2023-06-03T17:58:57.376Z,27.95
2023-06-03T18:01:26.397Z,28.01
2023-06-03T18:03:55.006Z,28.15
2023-06-03T18:06:23.820Z,28.16
2023-06-03T18:08:53.715Z,28.18
2023-06-03T18:11:22.826Z,28.27
2023-06-03T18:13:51.754Z,28.29
2023-06-03T18:16:21.023Z,28.35
2023-06-03T18:18:49.923Z,28.37
2023-06-03T18:21:19.573Z,28.49
2023-06-03T18:23:48.899Z,28.40
2023-06-03T18:26:28.262Z,28.40
2023-06-03T18:28:58.589Z,28.47
2023-06-03T18:31:27.311Z,28.48
2023-06-03T18:33:55.966Z,28.52
2023-06-03T18:36:25.121Z,28.50
2023-06-03T18:38:55.210Z,28.58
2023-06-03T18:41:23.819Z,28.62
2023-06-03T18:43:56.960Z,28.69
2023-06-03T18:46:27.115Z,28.69
2023-06-03T18:48:56.132Z,28.79
2023-06-03T18:51:24.824Z,28.79
2023-06-03T18:53:54.322Z,28.91
2023-06-03T18:56:24.294Z,28.88
2023-06-03T18:58:53.656Z,28.90
2023-06-03T19:01:26.466Z,28.92
2023-06-03T19:04:00.375Z,29.00
2023-06-03T19:06:29.501Z,29.10
2023-06-03T19:09:01.187Z,29.11
2023-06-03T19:11:30.117Z,29.01
2023-06-03T19:13:59.414Z,29.08
2023-06-03T19:16:28.870Z,29.22
2023-06-03T19:18:57.894Z,29.41
2023-06-03T19:21:26.753Z,29.41
2023-06-03T19:23:56.670Z,29.59
2023-06-03T19:26:25.928Z,29.67
2023-06-03T19:28:58.470Z,29.73
2023-06-03T19:31:29.285Z,29.74
2023-06-03T19:33:59.917Z,29.89
2023-06-03T19:36:29.347Z,29.95
2023-06-03T19:38:58.809Z,29.94
2023-06-03T19:41:28.019Z,30.01
2023-06-03T19:43:56.883Z,30.07
2023-06-03T19:46:27.972Z,30.02
2023-06-03T19:48:57.367Z,30.22
2023-06-03T19:51:26.663Z,30.41
2023-06-03T19:53:55.874Z,30.37
2023-06-03T19:56:25.139Z,30.35
2023-06-03T19:58:53.750Z,30.32
2023-06-03T20:01:22.676Z,30.45
2023-06-03T20:03:52.325Z,30.55
2023-06-03T20:06:21.143Z,30.71
2023-06-03T20:08:56.127Z,30.87
2023-06-03T20:11:25.257Z,30.95
2023-06-03T20:13:54.518Z,30.92
2023-06-03T20:16:23.450Z,30.97
2023-06-03T20:18:52.327Z,30.97
2023-06-03T20:21:21.401Z,31.06
2023-06-03T20:23:50.985Z,31.09
2023-06-03T20:26:19.798Z,31.37
2023-06-03T20:28:49.638Z,31.32
2023-06-03T20:31:19.109Z,31.52
2023-06-03T20:33:48.246Z,31.67
2023-06-03T20:36:19.056Z,31.90
2023-06-03T20:38:47.928Z,31.75
2023-06-03T20:41:16.778Z,31.80
2023-06-03T20:43:46.853Z,31.91
2023-06-03T20:46:15.593Z,32.30
2023-06-03T20:48:44.325Z,32.40
2023-06-03T20:51:13.470Z,32.47
2023-06-03T20:53:42.474Z,32.68
2023-06-03T20:56:11.279Z,32.68
2023-06-03T20:58:40.028Z,32.62
2023-06-03T21:01:09.072Z,32.49
2023-06-03T21:03:37.889Z,32.48
2023-06-03T21:06:07.059Z,32.46
2023-06-03T21:08:36.344Z,32.63
2023-06-03T21:11:05.583Z,32.78
2023-06-03T21:13:37.239Z,32.89
2023-06-03T21:16:07.562Z,33.05
2023-06-03T21:18:36.188Z,33.11
2023-06-03T21:21:05.139Z,33.17
2023-06-03T21:23:35.244Z,33.46
2023-06-03T21:26:06.802Z,33.64
2023-06-03T21:28:35.858Z,33.64
2023-06-03T21:31:04.635Z,34.01
2023-06-03T21:33:33.585Z,34.11
2023-06-03T21:36:02.649Z,34.36
2023-06-03T21:38:31.371Z,34.16
2023-06-03T21:40:59.904Z,34.03
2023-06-03T21:43:28.730Z,34.23
2023-06-03T21:45:57.242Z,34.13
2023-06-03T21:48:25.863Z,34.33
2023-06-03T21:50:55.286Z,34.31
2023-06-03T21:53:23.856Z,34.55
2023-06-03T21:55:52.757Z,34.43
2023-06-03T21:58:21.840Z,34.51
2023-06-03T22:00:50.989Z,34.65
2023-06-03T22:03:19.859Z,34.79
2023-06-03T22:05:48.609Z,34.65
2023-06-03T22:08:17.202Z,34.60
2023-06-03T22:10:46.033Z,34.49
2023-06-03T22:13:14.898Z,34.48
2023-06-03T22:15:43.425Z,34.68
2023-06-03T22:18:12.868Z,34.87
2023-06-03T22:20:41.766Z,35.12
2023-06-03T22:23:10.342Z,35.16
2023-06-03T22:25:39.206Z,34.95
2023-06-03T22:28:08.132Z,35.06
2023-06-03T22:30:36.733Z,35.07
2023-06-03T22:33:08.492Z,35.35
2023-06-03T22:35:40.084Z,35.56
2023-06-03T22:38:09.403Z,35.66
2023-06-03T22:40:37.935Z,35.79
2023-06-03T22:43:06.667Z,35.67
2023-06-03T22:45:35.309Z,35.58
2023-06-03T22:48:04.043Z,35.75
2023-06-03T22:50:32.751Z,35.95
2023-06-03T22:53:01.687Z,36.17
2023-06-03T22:55:30.235Z,36.34
2023-06-03T22:57:59.332Z,36.33
2023-06-03T23:00:28.674Z,36.33
2023-06-03T23:02:57.516Z,36.31
2023-06-03T23:05:26.821Z,36.27
2023-06-03T23:07:55.670Z,36.22
2023-06-03T23:10:24.206Z,36.22
2023-06-03T23:12:52.901Z,36.52
2023-06-03T23:15:21.974Z,36.51
2023-06-03T23:17:50.569Z,36.74
2023-06-03T23:20:20.029Z,36.87
2023-06-03T23:22:48.690Z,36.85
2023-06-03T23:25:17.660Z,37.11
2023-06-03T23:27:49.307Z,37.19
2023-06-03T23:30:18.313Z,37.29
2023-06-03T23:32:47.138Z,37.36
2023-06-03T23:35:16.408Z,37.61
2023-06-03T23:37:45.621Z,37.53
2023-06-03T23:40:14.639Z,37.78
2023-06-03T23:42:43.381Z,37.75
2023-06-03T23:45:12.515Z,37.73
2023-06-03T23:47:41.246Z,37.77
2023-06-03T23:50:10.680Z,37.82
2023-06-03T23:52:39.532Z,37.92
2023-06-03T23:55:08.449Z,37.93
2023-06-03T23:57:37.367Z,38.03
